Time;durP1;ratioP1;P1;durP2;ratioP2;P2;SDS_P1;SDS_P2;PMS_P1;PMS_P2;Temp;Humidity;BMP_temperature;BMP_pressure;BME280_temperature;BME280_humidity;BME280_pressure;Samples;Min_cycle;Max_cycle;Signal;HPM_P1;HPM_P2
2022/05/02 00:00:14;;;;;;;15.27;12.53;;;7.80;99.90;;;;;;4918123;29;20621;-73
2022/05/02 00:02:39;;;;;;;14.20;12.60;;;7.80;99.90;;;;;;4918314;29;20225;-72
2022/05/02 00:05:06;;;;;;;13.40;12.00;;;7.70;99.90;;;;;;4918670;29;20457;-73
2022/05/02 00:07:32;;;;;;;15.80;11.70;;;7.70;99.90;;;;;;4918550;29;20196;-73
2022/05/02 00:09:57;;;;;;;11.80;10.60;;;7.60;99.90;;;;;;4918264;29;20415;-73
2022/05/02 00:12:23;;;;;;;15.00;12.23;;;7.60;99.90;;;;;;4917818;29;20204;-72
2022/05/02 00:14:49;;;;;;;15.70;13.17;;;7.60;99.90;;;;;;4918371;29;20188;-72
2022/05/02 00:17:15;;;;;;;15.53;12.47;;;7.60;99.90;;;;;;4917872;29;20472;-73
2022/05/02 00:19:41;;;;;;;13.70;11.23;;;7.50;99.90;;;;;;4918121;29;20613;-73
2022/05/02 00:22:06;;;;;;;12.33;11.13;;;7.50;99.90;;;;;;4917806;29;20436;-72
2022/05/02 00:24:32;;;;;;;16.20;13.13;;;7.50;99.90;;;;;;4918360;29;20195;-73
2022/05/02 00:26:58;;;;;;;13.90;11.97;;;7.50;99.90;;;;;;4918456;29;20184;-71
2022/05/02 00:29:24;;;;;;;17.00;13.13;;;7.50;99.90;;;;;;4918002;29;20195;-73
2022/05/02 00:31:50;;;;;;;17.70;13.43;;;7.50;99.90;;;;;;4917628;29;20216;-72
2022/05/02 00:34:16;;;;;;;14.40;12.37;;;7.50;99.90;;;;;;4917589;29;20455;-72
2022/05/02 00:36:41;;;;;;;14.43;11.90;;;7.50;99.90;;;;;;4917671;29;20471;-73
2022/05/02 00:39:07;;;;;;;14.80;12.53;;;7.50;99.90;;;;;;4917598;29;20420;-74
2022/05/02 00:41:33;;;;;;;15.30;12.03;;;7.50;99.90;;;;;;4918140;29;20205;-72
2022/05/02 00:43:59;;;;;;;18.40;13.23;;;7.50;99.90;;;;;;4917991;29;20231;-72
2022/05/02 00:46:26;;;;;;;13.07;11.70;;;7.40;99.90;;;;;;4917582;29;20412;-72
2022/05/02 00:48:52;;;;;;;13.47;11.30;;;7.40;99.90;;;;;;4917748;29;20181;-72
2022/05/02 00:51:18;;;;;;;14.73;13.13;;;7.40;99.90;;;;;;4917552;29;20441;-72
2022/05/02 00:53:46;;;;;;;14.07;12.07;;;7.40;99.90;;;;;;4917775;29;20421;-72
2022/05/02 00:56:12;;;;;;;13.77;11.33;;;7.30;99.90;;;;;;4917267;29;20506;-72
2022/05/02 00:58:38;;;;;;;16.00;12.47;;;7.30;99.90;;;;;;4917616;29;20429;-72
2022/05/02 02:31:30;;;;;;;14.97;13.17;;;7.70;99.90;;;;;;5632159;23;21035;-74
2022/05/02 02:33:55;;;;;;;15.83;13.50;;;7.70;99.90;;;;;;4964230;28;20578;-70
2022/05/02 02:36:21;;;;;;;19.90;14.23;;;7.70;99.90;;;;;;4972592;28;20406;-71
2022/05/02 02:38:46;;;;;;;18.30;14.60;;;7.70;99.90;;;;;;4956733;28;20186;-71
2022/05/02 02:41:12;;;;;;;19.50;15.67;;;7.70;99.90;;;;;;4954157;28;20250;-71
2022/05/02 02:43:37;;;;;;;17.80;13.37;;;7.70;99.90;;;;;;4953797;28;20591;-70
2022/05/02 02:46:03;;;;;;;14.80;13.20;;;7.70;99.90;;;;;;4953622;28;20276;-72
2022/05/02 02:48:28;;;;;;;15.87;13.80;;;7.70;99.90;;;;;;4953768;28;20642;-72
2022/05/02 02:50:54;;;;;;;17.37;12.60;;;7.70;99.90;;;;;;4953501;28;20683;-72
2022/05/02 02:53:19;;;;;;;14.73;13.13;;;7.70;99.90;;;;;;4953528;28;20176;-72
2022/05/02 02:55:45;;;;;;;21.03;12.70;;;7.70;99.90;;;;;;4953753;28;20206;-73
2022/05/02 02:58:10;;;;;;;14.63;12.50;;;7.70;99.90;;;;;;4952610;28;20207;-73
2022/05/02 03:00:36;;;;;;;17.77;14.60;;;7.70;99.90;;;;;;4953234;28;20212;-72
2022/05/02 03:03:01;;;;;;;19.30;13.70;;;7.70;99.90;;;;;;4953343;28;20693;-72
2022/05/02 03:08:11;;;;;;;15.20;13.57;;;7.70;99.90;;;;;;4953645;28;20548;-72
2022/05/02 03:10:37;;;;;;;15.70;13.90;;;7.80;99.90;;;;;;4953608;28;20410;-73
2022/05/02 03:13:03;;;;;;;18.97;14.23;;;7.80;99.90;;;;;;4953957;28;20184;-72
2022/05/02 03:15:28;;;;;;;16.20;14.03;;;7.90;99.90;;;;;;4953612;28;20202;-73
2022/05/02 03:17:53;;;;;;;16.23;14.53;;;7.90;99.90;;;;;;4953581;28;20216;-72
2022/05/02 03:20:19;;;;;;;19.57;15.27;;;7.90;99.90;;;;;;4953044;28;20193;-71
2022/05/02 03:22:45;;;;;;;17.47;14.80;;;7.90;99.90;;;;;;4953262;28;20225;-72
2022/05/02 03:25:10;;;;;;;15.80;14.10;;;7.90;99.90;;;;;;4953168;28;20583;-72
2022/05/02 03:27:36;;;;;;;18.10;14.93;;;7.90;99.90;;;;;;4953365;28;20655;-72
2022/05/02 03:30:02;;;;;;;17.73;14.83;;;8.00;99.90;;;;;;4953248;28;20631;-73
2022/05/02 03:32:27;;;;;;;19.50;15.77;;;8.10;99.90;;;;;;4952132;28;20223;-74
2022/05/02 03:34:53;;;;;;;21.63;16.83;;;8.10;99.90;;;;;;4954208;28;20804;-72
2022/05/02 03:37:19;;;;;;;20.77;15.20;;;8.10;99.90;;;;;;4953398;28;20199;-72
2022/05/02 03:39:44;;;;;;;17.40;15.07;;;8.10;99.90;;;;;;4953088;28;20229;-72
2022/05/02 03:42:10;;;;;;;22.53;15.00;;;8.10;99.90;;;;;;4951551;28;20200;-72
2022/05/02 03:44:35;;;;;;;20.03;14.77;;;8.10;99.90;;;;;;4953283;28;20249;-72
2022/05/02 03:47:01;;;;;;;18.83;16.30;;;8.20;99.90;;;;;;4953185;28;20737;-72
2022/05/02 03:49:26;;;;;;;19.27;15.10;;;8.10;99.90;;;;;;4953249;28;20692;-72
2022/05/02 03:51:52;;;;;;;20.57;15.97;;;8.20;99.90;;;;;;4953020;28;20281;-72
2022/05/02 03:54:17;;;;;;;20.67;16.53;;;8.20;99.90;;;;;;4952946;28;20170;-72
2022/05/02 03:56:43;;;;;;;20.40;17.30;;;8.20;99.90;;;;;;4952908;28;20194;-72
2022/05/02 03:59:08;;;;;;;21.50;16.50;;;8.30;99.90;;;;;;4952779;28;20176;-72
2022/05/02 04:01:39;;;;;;;20.93;17.13;;;8.30;99.90;;;;;;4952795;28;20223;-72
2022/05/02 04:04:05;;;;;;;20.70;16.57;;;8.30;99.90;;;;;;4952879;28;20187;-72
2022/05/02 04:06:31;;;;;;;22.73;16.07;;;8.40;99.90;;;;;;4951638;28;20424;-72
2022/05/02 04:08:56;;;;;;;21.30;16.30;;;8.40;99.90;;;;;;4954052;28;20635;-71
2022/05/02 04:11:22;;;;;;;21.00;16.23;;;8.40;99.90;;;;;;4955937;28;20200;-71
2022/05/02 04:13:47;;;;;;;19.70;15.10;;;8.50;99.90;;;;;;4956398;28;20664;-72
2022/05/02 04:16:13;;;;;;;19.33;15.70;;;8.50;99.90;;;;;;4956137;28;20183;-72
2022/05/02 04:18:38;;;;;;;19.77;15.20;;;8.50;99.90;;;;;;4956404;28;20225;-71
2022/05/02 04:21:04;;;;;;;18.27;15.90;;;8.50;99.90;;;;;;4956348;28;20201;-72
2022/05/02 04:23:29;;;;;;;21.13;15.43;;;8.50;99.90;;;;;;4956334;28;20177;-72
2022/05/02 04:25:55;;;;;;;19.43;15.63;;;8.60;99.90;;;;;;4956191;28;20180;-72
2022/05/02 04:28:20;;;;;;;20.40;17.27;;;8.60;99.90;;;;;;4956102;28;20216;-72
2022/05/02 04:30:46;;;;;;;17.77;15.90;;;8.70;99.90;;;;;;4956096;28;20255;-72
2022/05/02 04:33:12;;;;;;;19.57;15.17;;;8.70;99.90;;;;;;4955903;28;20650;-71
2022/05/02 04:35:38;;;;;;;20.27;15.80;;;8.70;99.90;;;;;;4956163;28;20183;-73
2022/05/02 04:38:03;;;;;;;16.93;13.80;;;8.80;99.90;;;;;;4955801;28;20459;-71
2022/05/02 04:40:29;;;;;;;19.93;14.97;;;8.90;99.90;;;;;;4955870;28;20180;-72
2022/05/02 04:42:54;;;;;;;16.97;15.17;;;9.00;99.90;;;;;;4955701;28;20206;-72
2022/05/02 04:45:20;;;;;;;19.17;15.90;;;9.00;99.90;;;;;;4954611;28;20186;-72
2022/05/02 04:47:45;;;;;;;16.20;14.43;;;9.00;99.90;;;;;;4955887;28;20577;-71
2022/05/02 04:50:11;;;;;;;17.43;14.43;;;9.10;99.90;;;;;;4955501;28;20259;-72
2022/05/02 04:52:36;;;;;;;22.17;14.87;;;9.10;99.90;;;;;;4958645;28;20201;-72
2022/05/02 04:55:02;;;;;;;17.00;14.57;;;9.20;99.90;;;;;;4960679;28;20266;-71
2022/05/02 04:57:28;;;;;;;18.70;16.07;;;9.30;99.90;;;;;;4959684;28;20343;-71
2022/05/02 04:59:53;;;;;;;18.30;15.93;;;9.40;99.90;;;;;;4954251;28;20171;-72
2022/05/02 05:02:19;;;;;;;18.10;15.30;;;9.40;99.90;;;;;;4949814;28;20530;-70
2022/05/02 05:04:44;;;;;;;23.27;16.63;;;9.50;99.90;;;;;;4947942;28;20287;-70
2022/05/02 05:07:10;;;;;;;22.07;15.93;;;9.50;99.90;;;;;;4950106;28;20183;-71
2022/05/02 05:09:36;;;;;;;18.73;15.40;;;9.60;99.90;;;;;;4935966;29;20196;-69
2022/05/02 05:12:32;;;;;;;20.27;15.60;;;9.80;99.90;;;;;;4935916;29;20749;-72
2022/05/02 05:18:50;;;;;;;16.00;12.30;;;10.50;99.90;;;;;;4914442;29;20481;-72
2022/05/02 05:21:35;;;;;;;14.17;12.47;;;12.20;99.90;;;;;;4917157;29;20469;-72
2022/05/02 05:24:25;;;;;;;14.43;12.70;;;13.60;99.90;;;;;;4946577;28;20877;-73
2022/05/02 05:27:10;;;;;;;12.17;10.93;;;14.80;99.90;;;;;;4957565;28;20858;-73
2022/05/02 05:30:02;;;;;;;13.07;11.67;;;15.70;99.90;;;;;;4954606;28;20448;-73
2022/05/02 05:32:46;;;;;;;13.10;11.70;;;16.20;99.90;;;;;;4953282;29;20467;-73
2022/05/02 05:35:15;;;;;;;13.60;12.30;;;16.70;99.90;;;;;;4953970;28;20438;-73
2022/05/02 05:37:48;;;;;;;11.73;10.73;;;17.10;99.90;;;;;;4954811;28;20511;-73
2022/05/02 05:40:37;;;;;;;13.63;12.00;;;17.50;99.90;;;;;;4953991;28;20452;-73
2022/05/02 05:43:21;;;;;;;15.27;13.80;;;18.30;99.90;;;;;;4954595;28;20921;-73
2022/05/02 05:46:23;;;;;;;14.17;12.67;;;18.20;99.90;;;;;;4954722;28;20504;-73
2022/05/02 05:49:26;;;;;;;17.50;14.20;;;18.60;99.90;;;;;;4954632;28;20502;-73
2022/05/02 05:52:05;;;;;;;14.87;13.27;;;18.60;99.90;;;;;;4936336;28;20458;-74
2022/05/02 05:54:55;;;;;;;13.70;12.43;;;19.10;99.90;;;;;;4954587;28;20933;-73
2022/05/02 05:57:40;;;;;;;15.10;13.60;;;19.40;99.90;;;;;;4942029;28;20457;-74
2022/05/02 06:00:10;;;;;;;17.13;15.33;;;19.80;99.90;;;;;;4950643;28;20425;-73
2022/05/02 06:02:40;;;;;;;17.90;16.10;;;19.90;99.90;;;;;;4954250;28;20507;-73
2022/05/02 06:05:08;;;;;;;20.10;15.73;;;19.80;99.90;;;;;;4954135;28;20448;-73
2022/05/02 06:07:35;;;;;;;19.20;16.60;;;19.50;99.90;;;;;;4954171;29;20424;-73
2022/05/02 06:10:02;;;;;;;19.70;17.13;;;19.20;99.90;;;;;;4954142;28;20419;-73
2022/05/02 06:12:30;;;;;;;18.23;16.43;;;19.10;99.90;;;;;;4953542;28;20451;-73
2022/05/02 06:20:31;;;;;;;21.87;19.23;;;17.90;99.90;;;;;;4953931;28;21045;-72
2022/05/02 06:22:59;;;;;;;26.50;20.80;;;17.80;99.90;;;;;;4954038;28;20488;-73
2022/05/02 06:25:29;;;;;;;25.90;19.03;;;17.50;99.90;;;;;;4952640;28;20471;-73
2022/05/02 06:27:56;;;;;;;25.53;19.87;;;17.40;99.90;;;;;;4953733;28;20443;-73
2022/05/02 06:30:23;;;;;;;21.57;18.20;;;17.50;99.90;;;;;;4953561;28;20522;-73
2022/05/02 06:32:51;;;;;;;21.20;18.03;;;17.80;99.90;;;;;;4952109;28;20464;-72
2022/05/02 06:35:17;;;;;;;23.03;18.63;;;17.80;99.90;;;;;;4952455;28;20442;-73
2022/05/02 06:37:55;;;;;;;21.20;18.97;;;17.80;99.90;;;;;;4957493;28;20681;-73
2022/05/02 06:40:26;;;;;;;23.27;20.40;;;17.80;99.90;;;;;;4953181;28;20420;-72
2022/05/02 06:43:22;;;;;;;25.23;19.17;;;17.80;99.90;;;;;;4953744;28;20926;-73
2022/05/02 06:45:52;;;;;;;21.90;19.20;;;17.90;99.90;;;;;;4953553;28;20515;-72
2022/05/02 06:48:41;;;;;;;21.20;18.50;;;17.50;99.90;;;;;;4953103;28;20448;-73
2022/05/02 06:51:33;;;;;;;23.27;19.33;;;17.80;99.90;;;;;;4953129;28;20447;-73
2022/05/02 06:54:46;;;;;;;21.47;18.57;;;17.70;99.90;;;;;;4950131;28;20436;-73
2022/05/02 06:57:40;;;;;;;18.93;17.03;;;18.20;99.90;;;;;;4952881;28;20456;-73
2022/05/02 07:00:08;;;;;;;21.50;19.10;;;18.20;99.90;;;;;;4952547;28;20471;-73
2022/05/02 07:03:10;;;;;;;25.07;20.27;;;18.20;99.90;;;;;;4951650;29;20432;-73
2022/05/02 07:06:15;;;;;;;20.30;18.10;;;18.30;99.90;;;;;;4954066;28;20423;-74
2022/05/02 07:08:54;;;;;;;22.20;18.60;;;18.50;99.90;;;;;;4954668;28;20507;-74
2022/05/02 07:11:21;;;;;;;22.60;19.10;;;18.70;99.90;;;;;;4952186;28;20519;-73
2022/05/02 07:14:03;;;;;;;18.73;16.93;;;18.40;99.90;;;;;;4952870;28;20417;-74
2022/05/02 07:16:31;;;;;;;23.23;19.77;;;18.80;99.90;;;;;;4954276;28;20496;-74
2022/05/02 07:19:14;;;;;;;20.57;17.20;;;18.80;99.90;;;;;;4953970;28;20475;-74
2022/05/02 07:22:09;;;;;;;18.80;16.77;;;18.80;99.90;;;;;;4953273;28;20442;-74
2022/05/02 07:25:06;;;;;;;21.50;19.00;;;19.00;99.90;;;;;;4952689;28;20436;-74
2022/05/02 07:27:53;;;;;;;21.37;19.17;;;19.10;99.90;;;;;;4953783;28;20821;-74
2022/05/02 07:30:23;;;;;;;26.57;18.33;;;19.20;99.90;;;;;;4953820;28;20428;-74
2022/05/02 07:32:51;;;;;;;21.50;19.20;;;19.40;99.90;;;;;;4953882;28;20542;-74
2022/05/02 07:35:17;;;;;;;22.03;19.50;;;19.40;99.90;;;;;;4953469;28;20479;-74
2022/05/02 07:37:43;;;;;;;22.43;18.27;;;19.60;99.90;;;;;;4953542;28;20794;-74
2022/05/02 07:40:12;;;;;;;21.10;18.90;;;19.50;99.90;;;;;;4952933;28;20790;-74
2022/05/02 07:42:39;;;;;;;23.33;19.47;;;19.50;99.90;;;;;;4953361;28;20450;-74
2022/05/02 07:45:10;;;;;;;22.00;19.43;;;19.60;99.90;;;;;;4956071;28;20476;-74
2022/05/02 07:47:36;;;;;;;24.27;20.00;;;20.20;99.90;;;;;;4958289;28;20496;-74
2022/05/02 07:50:05;;;;;;;21.87;19.43;;;20.10;99.90;;;;;;4957014;28;20416;-75
2022/05/02 07:52:36;;;;;;;22.70;18.93;;;20.10;99.90;;;;;;4957360;28;20443;-74
2022/05/02 07:55:03;;;;;;;25.00;19.80;;;19.80;99.90;;;;;;4956828;28;20452;-74
2022/05/02 07:57:32;;;;;;;20.90;18.60;;;20.10;99.90;;;;;;4956740;28;20470;-74
2022/05/02 08:00:00;;;;;;;22.60;18.27;;;20.50;99.90;;;;;;4956781;29;20846;-74
2022/05/02 08:02:26;;;;;;;21.83;19.53;;;20.30;99.90;;;;;;4956536;28;20875;-74
2022/05/02 08:04:53;;;;;;;21.37;19.07;;;20.60;99.90;;;;;;4956692;28;20424;-75
2022/05/02 08:07:33;;;;;;;22.70;17.03;;;20.50;99.90;;;;;;4957843;28;20423;-74
2022/05/02 08:10:30;;;;;;;20.43;18.10;;;20.90;99.90;;;;;;4956719;28;20455;-74
2022/05/02 08:13:27;;;;;;;19.13;17.23;;;21.00;99.90;;;;;;4956321;29;20439;-74
2022/05/02 08:16:05;;;;;;;21.80;18.20;;;21.10;99.90;;;;;;4956677;28;20451;-74
2022/05/02 08:18:43;;;;;;;21.90;18.17;;;21.40;99.90;;;;;;4955175;28;20515;-75
2022/05/02 08:21:29;;;;;;;19.53;17.43;;;21.20;99.90;;;;;;4955892;28;20444;-75
2022/05/02 08:27:34;;;;;;;21.63;19.30;;;21.50;99.90;;;;;;4956256;29;20416;-74
2022/05/02 08:30:17;;;;;;;18.93;16.90;;;21.60;99.90;;;;;;4954753;28;20523;-74
2022/05/02 08:32:43;;;;;;;21.30;18.30;;;21.70;99.90;;;;;;4957372;28;20816;-75
2022/05/02 08:35:13;;;;;;;19.83;17.53;;;22.00;99.90;;;;;;4960618;28;20417;-74
2022/05/02 08:38:05;;;;;;;20.20;17.90;;;22.30;99.90;;;;;;4959579;28;20299;-75
2022/05/02 08:40:43;;;;;;;18.60;16.63;;;22.30;99.90;;;;;;4956419;28;20503;-75
2022/05/02 08:43:08;;;;;;;18.53;16.73;;;21.70;99.90;;;;;;4956945;28;20503;-74
2022/05/02 08:45:55;;;;;;;19.67;17.57;;;21.40;99.90;;;;;;4956183;28;20499;-74
2022/05/02 08:48:23;;;;;;;19.00;17.10;;;20.90;99.90;;;;;;4954623;29;20188;-75
2022/05/02 08:51:10;;;;;;;17.47;15.77;;;21.00;99.90;;;;;;4955439;28;20452;-74
2022/05/02 08:53:58;;;;;;;18.23;16.00;;;21.40;99.90;;;;;;4955780;29;20452;-75
2022/05/02 08:57:01;;;;;;;19.30;16.00;;;21.90;99.90;;;;;;4954488;28;20412;-75
2022/05/02 09:00:07;;;;;;;16.67;14.97;;;22.80;99.90;;;;;;4955749;29;20416;-75
2022/05/02 09:02:56;;;;;;;17.00;13.07;;;21.90;99.90;;;;;;4955648;28;20494;-75
2022/05/02 09:05:48;;;;;;;15.17;13.67;;;21.00;99.90;;;;;;4955913;28;20865;-74
2022/05/02 09:08:39;;;;;;;14.30;12.60;;;20.20;99.90;;;;;;4947005;28;20432;-75
2022/05/02 09:11:12;;;;;;;18.33;14.90;;;20.70;99.90;;;;;;4955025;28;20534;-74
2022/05/02 09:14:24;;;;;;;16.70;14.30;;;21.30;99.90;;;;;;4955558;28;20423;-74
2022/05/02 09:17:31;;;;;;;18.17;14.10;;;21.40;99.90;;;;;;4955459;28;20408;-74
2022/05/02 09:19:59;;;;;;;14.33;12.90;;;21.70;99.90;;;;;;4951980;29;20476;-74
2022/05/02 09:23:01;;;;;;;19.40;14.00;;;21.70;99.90;;;;;;4954869;28;20435;-75
2022/05/02 09:26:04;;;;;;;14.53;11.40;;;21.20;99.90;;;;;;4955367;28;20408;-75
2022/05/02 09:28:38;;;;;;;14.47;11.07;;;20.90;99.90;;;;;;4955295;28;20929;-72
2022/05/02 09:32:02;;;;;;;12.47;11.20;;;21.40;99.90;;;;;;4954882;28;20827;-72
2022/05/02 09:34:40;;;;;;;16.07;12.83;;;22.30;99.90;;;;;;4895470;29;20433;-72
2022/05/02 09:37:11;;;;;;;16.17;14.47;;;22.80;99.90;;;;;;4933100;29;20461;-72
2022/05/02 09:39:52;;;;;;;16.30;14.43;;;22.40;99.90;;;;;;4948964;28;20433;-73
2022/05/02 09:42:32;;;;;;;15.10;13.67;;;22.10;99.90;;;;;;4954385;28;20801;-73
2022/05/02 09:51:34;;;;;;;13.07;11.73;;;21.00;99.90;;;;;;4954162;29;20436;-72
2022/05/02 09:54:11;;;;;;;15.70;13.97;;;21.50;99.90;;;;;;4954584;28;20412;-73
2022/05/02 09:56:45;;;;;;;19.27;13.60;;;21.90;99.90;;;;;;4954381;28;20518;-73
2022/05/02 09:59:22;;;;;;;14.33;12.93;;;22.40;99.90;;;;;;4954358;28;20420;-73
2022/05/02 10:01:53;;;;;;;15.17;11.70;;;23.20;99.90;;;;;;4954391;28;20494;-73
2022/05/02 10:04:47;;;;;;;11.67;10.43;;;22.90;99.90;;;;;;4954614;28;20964;-72
2022/05/02 10:07:18;;;;;;;13.17;11.37;;;22.10;99.90;;;;;;4953936;28;20917;-73
2022/05/02 10:10:07;;;;;;;15.23;10.67;;;22.60;99.90;;;;;;4954296;28;20424;-72
2022/05/02 10:13:03;;;;;;;12.07;10.80;;;22.40;99.90;;;;;;4954016;28;20440;-73
2022/05/02 10:16:24;;;;;;;13.60;10.80;;;22.00;99.90;;;;;;4954421;28;20783;-72
2022/05/02 10:19:09;;;;;;;10.03;9.10;;;22.40;99.90;;;;;;4932536;29;21046;-72
2022/05/02 10:21:56;;;;;;;11.83;10.83;;;24.00;99.90;;;;;;4952173;28;20452;-71
2022/05/02 10:24:43;;;;;;;11.50;10.40;;;24.30;99.90;;;;;;4954358;28;20913;-72
2022/05/02 10:27:38;;;;;;;11.03;10.00;;;24.90;99.90;;;;;;4953874;28;20412;-72
2022/05/02 10:30:11;;;;;;;10.67;9.53;;;24.90;99.90;;;;;;4953739;28;20424;-73
2022/05/02 10:32:44;;;;;;;10.20;9.40;;;24.90;99.90;;;;;;4953608;28;20531;-73
2022/05/02 10:35:12;;;;;;;10.97;9.87;;;24.60;99.90;;;;;;4953669;28;20420;-72
2022/05/02 10:37:42;;;;;;;10.83;9.07;;;23.90;99.90;;;;;;4953820;28;20463;-73
2022/05/02 10:40:10;;;;;;;8.50;7.67;;;23.30;99.90;;;;;;4953924;28;20478;-72
2022/05/02 10:42:44;;;;;;;9.67;8.77;;;22.90;99.90;;;;;;4955608;29;20620;-73
2022/05/02 10:45:10;;;;;;;7.50;6.90;;;23.00;99.90;;;;;;4953587;28;20424;-72
2022/05/02 10:47:58;;;;;;;8.20;7.23;;;23.30;99.90;;;;;;4953717;28;20404;-72
2022/05/02 10:50:31;;;;;;;8.23;7.47;;;23.80;99.90;;;;;;4953310;28;20783;-71
2022/05/02 10:52:59;;;;;;;8.47;7.47;;;23.80;99.90;;;;;;4954370;28;20519;-73
2022/05/02 10:55:32;;;;;;;7.23;6.53;;;23.80;99.90;;;;;;4953510;28;20528;-73
2022/05/02 10:58:04;;;;;;;6.80;6.30;;;23.70;99.90;;;;;;4954031;28;20463;-72
2022/05/02 11:00:31;;;;;;;7.03;6.27;;;23.40;99.90;;;;;;4953185;29;20442;-72
2022/05/02 11:03:44;;;;;;;7.90;7.03;;;23.40;99.90;;;;;;4952049;28;20436;-72
2022/05/02 11:06:24;;;;;;;9.97;8.57;;;23.10;99.90;;;;;;4949020;28;20428;-72
2022/05/02 11:09:03;;;;;;;9.43;7.40;;;23.10;99.90;;;;;;4953611;28;20416;-73
2022/05/02 11:11:45;;;;;;;8.73;8.10;;;22.80;99.90;;;;;;4953286;28;20931;-72
2022/05/02 11:14:32;;;;;;;8.10;7.40;;;22.20;99.90;;;;;;4953112;28;20929;-72
2022/05/02 11:17:19;;;;;;;7.70;7.10;;;22.20;99.90;;;;;;4954115;28;20987;-74
2022/05/02 11:23:27;;;;;;;8.13;7.40;;;22.30;99.90;;;;;;4960387;29;20403;-75
2022/05/02 11:26:33;;;;;;;7.30;6.80;;;22.50;99.90;;;;;;4961502;28;20185;-74
2022/05/02 11:29:35;;;;;;;8.77;7.97;;;22.20;99.90;;;;;;4953989;29;20449;-74
2022/05/02 11:32:05;;;;;;;7.40;6.80;;;21.80;99.90;;;;;;4936642;29;20456;-75
2022/05/02 11:34:46;;;;;;;10.30;9.20;;;21.70;99.90;;;;;;4937903;29;20417;-73
2022/05/02 11:37:23;;;;;;;9.70;7.90;;;21.30;99.90;;;;;;4937833;29;20791;-71
2022/05/02 11:39:56;;;;;;;7.00;5.90;;;21.30;99.90;;;;;;4937737;28;20926;-72
2022/05/02 11:42:22;;;;;;;7.37;6.67;;;20.80;99.90;;;;;;4937395;28;20537;-71
2022/05/02 11:44:57;;;;;;;7.13;6.53;;;20.70;99.90;;;;;;4937658;29;20476;-71
2022/05/02 11:47:49;;;;;;;7.50;6.70;;;20.70;99.90;;;;;;4937734;29;20954;-71
2022/05/02 11:50:18;;;;;;;6.73;6.13;;;20.70;99.90;;;;;;4937351;29;20425;-72
2022/05/02 11:52:53;;;;;;;7.20;6.60;;;21.00;99.90;;;;;;4937137;29;20524;-72
2022/05/02 11:55:27;;;;;;;7.20;6.67;;;21.70;99.90;;;;;;4937466;29;20436;-72
2022/05/02 11:58:05;;;;;;;9.33;7.23;;;21.90;99.90;;;;;;4937333;29;20581;-71
2022/05/02 12:00:33;;;;;;;8.13;7.33;;;22.30;99.90;;;;;;4937179;29;20417;-72
2022/05/02 12:03:10;;;;;;;6.97;6.43;;;22.10;99.90;;;;;;4937229;29;20806;-71
2022/05/02 12:05:41;;;;;;;8.57;7.77;;;21.70;99.90;;;;;;4937468;29;20416;-72
2022/05/02 12:08:09;;;;;;;8.33;7.53;;;21.40;99.90;;;;;;4940242;29;20472;-72
2022/05/02 12:10:45;;;;;;;7.87;7.27;;;21.20;99.90;;;;;;4938811;29;20431;-72
2022/05/02 12:13:15;;;;;;;7.63;6.83;;;20.90;99.90;;;;;;4940164;29;20507;-73
2022/05/02 12:15:59;;;;;;;8.30;7.60;;;20.70;99.90;;;;;;4954616;28;20421;-73
2022/05/02 12:18:45;;;;;;;8.70;7.90;;;20.70;99.90;;;;;;4937764;29;20981;-73
2022/05/02 12:21:35;;;;;;;7.90;7.03;;;20.70;99.90;;;;;;4937148;29;20504;-71
2022/05/02 12:24:03;;;;;;;7.30;6.03;;;20.70;99.90;;;;;;4938742;29;20859;-73
2022/05/02 12:26:32;;;;;;;8.37;7.47;;;20.90;99.90;;;;;;4938089;29;20477;-73
2022/05/02 12:29:11;;;;;;;10.50;9.50;;;20.80;99.90;;;;;;4938706;29;20413;-73
2022/05/02 12:31:38;;;;;;;6.00;5.60;;;20.80;99.90;;;;;;4922583;29;20487;-73
2022/05/02 12:34:05;;;;;;;8.10;7.40;;;20.60;99.90;;;;;;4935760;29;20445;-73
2022/05/02 12:36:47;;;;;;;8.33;6.83;;;20.60;99.90;;;;;;4936897;29;20420;-73
2022/05/02 12:39:18;;;;;;;6.90;6.23;;;20.40;99.90;;;;;;4936898;29;20417;-73
2022/05/02 12:42:07;;;;;;;6.43;5.90;;;20.50;99.90;;;;;;4936492;29;20437;-74
2022/05/02 12:45:02;;;;;;;5.67;5.10;;;20.90;99.90;;;;;;4935606;29;20406;-73
2022/05/02 12:47:39;;;;;;;6.00;5.40;;;21.20;99.90;;;;;;4937000;29;20408;-74
2022/05/02 12:50:06;;;;;;;5.70;5.20;;;21.40;99.90;;;;;;4936731;29;20405;-73
2022/05/02 12:52:33;;;;;;;5.67;5.27;;;21.30;99.90;;;;;;4951275;28;20438;-73
2022/05/02 12:54:59;;;;;;;6.57;6.00;;;21.60;99.90;;;;;;4936451;29;20452;-73
2022/05/02 13:00:30;;;;;;;6.50;6.00;;;21.40;99.90;;;;;;4936768;29;20551;-71
2022/05/02 13:02:59;;;;;;;5.07;4.67;;;20.80;99.90;;;;;;4936297;29;20528;-72
2022/05/02 13:05:31;;;;;;;5.37;4.97;;;20.60;99.90;;;;;;4936006;29;20496;-72
2022/05/02 13:07:57;;;;;;;4.80;4.50;;;20.60;99.90;;;;;;4936390;29;20780;-72
2022/05/02 13:10:26;;;;;;;5.13;4.73;;;20.60;99.90;;;;;;4935845;29;20421;-71
2022/05/02 13:13:09;;;;;;;5.60;5.10;;;20.50;99.90;;;;;;4935985;29;20444;-72
2022/05/02 13:15:40;;;;;;;4.93;4.53;;;20.60;99.90;;;;;;4936066;29;20425;-72
2022/05/02 13:18:14;;;;;;;4.93;4.50;;;20.60;99.90;;;;;;4935836;29;20456;-72
2022/05/02 13:20:55;;;;;;;5.20;4.43;;;20.50;99.90;;;;;;4935793;29;20428;-72
2022/05/02 13:23:22;;;;;;;5.27;4.87;;;20.60;99.90;;;;;;4935827;29;20418;-71
2022/05/02 13:26:05;;;;;;;4.60;4.10;;;20.70;99.90;;;;;;4935852;29;20556;-71
2022/05/02 13:28:43;;;;;;;4.57;4.13;;;20.60;99.90;;;;;;4936514;29;20421;-73
2022/05/02 13:31:21;;;;;;;4.20;3.80;;;20.50;99.90;;;;;;4935528;29;20436;-73
2022/05/02 13:33:51;;;;;;;4.00;3.70;;;20.30;99.90;;;;;;4935966;29;20424;-72
2022/05/02 13:36:17;;;;;;;6.27;5.03;;;20.30;99.90;;;;;;4935503;29;20430;-71
2022/05/02 13:39:15;;;;;;;6.53;4.60;;;20.20;99.90;;;;;;4936050;29;20468;-71
2022/05/02 13:42:03;;;;;;;9.97;5.17;;;20.20;99.90;;;;;;4935317;29;20440;-71
2022/05/02 13:44:52;;;;;;;5.40;5.00;;;20.10;99.90;;;;;;4935738;29;20424;-71
2022/05/02 13:47:21;;;;;;;7.47;5.10;;;20.20;99.90;;;;;;4935376;29;20448;-70
2022/05/02 13:50:11;;;;;;;7.43;5.77;;;20.20;99.90;;;;;;4935504;29;20427;-71
2022/05/02 13:52:59;;;;;;;6.20;5.70;;;20.40;99.90;;;;;;4935233;29;20548;-71
2022/05/02 13:55:29;;;;;;;5.10;4.70;;;20.60;99.90;;;;;;4935253;29;20416;-69
2022/05/02 13:58:25;;;;;;;5.63;5.13;;;20.50;99.90;;;;;;4935216;29;20541;-69
2022/05/02 14:03:55;;;;;;;4.93;4.43;;;20.70;99.90;;;;;;4946079;28;20862;-69
2022/05/02 14:06:29;;;;;;;4.57;4.27;;;20.70;99.90;;;;;;4972413;28;20419;-69
2022/05/02 14:08:54;;;;;;;7.90;4.60;;;20.60;99.90;;;;;;4971917;28;20451;-71
2022/05/02 14:11:20;;;;;;;5.13;4.60;;;20.40;99.90;;;;;;4972859;28;20798;-70
2022/05/02 14:14:06;;;;;;;6.03;5.43;;;20.40;99.90;;;;;;4966124;28;20267;-70
2022/05/02 14:16:35;;;;;;;6.13;5.63;;;20.10;99.90;;;;;;4953983;28;20702;-71
2022/05/02 14:19:01;;;;;;;5.50;4.93;;;20.30;99.90;;;;;;4954390;28;20567;-70
2022/05/02 14:21:30;;;;;;;4.97;4.67;;;20.40;99.90;;;;;;4953845;28;20519;-70
2022/05/02 14:23:57;;;;;;;6.03;4.70;;;20.40;99.90;;;;;;4953912;28;20404;-70
2022/05/02 14:26:27;;;;;;;5.03;4.20;;;20.40;99.90;;;;;;4952397;29;20427;-69
2022/05/02 14:28:54;;;;;;;4.83;4.50;;;20.40;99.90;;;;;;4954013;28;20421;-70
2022/05/02 14:31:21;;;;;;;8.43;6.00;;;20.30;99.90;;;;;;4953353;28;20441;-71
2022/05/02 14:33:48;;;;;;;15.90;7.50;;;20.20;99.90;;;;;;4953800;28;20838;-70
2022/05/02 14:36:16;;;;;;;4.70;4.30;;;20.00;99.90;;;;;;4952210;28;20484;-70
2022/05/02 14:38:43;;;;;;;6.60;4.97;;;19.80;99.90;;;;;;4953712;28;20483;-71
2022/05/02 14:41:09;;;;;;;5.13;4.73;;;19.80;99.90;;;;;;4952855;28;20440;-70
2022/05/02 14:43:35;;;;;;;5.20;4.10;;;19.90;99.90;;;;;;4953612;28;20408;-70
2022/05/02 14:46:02;;;;;;;4.83;4.43;;;20.00;99.90;;;;;;4953387;28;20412;-71
2022/05/02 14:48:28;;;;;;;4.77;4.37;;;20.00;99.90;;;;;;4953378;28;20455;-71
2022/05/02 14:51:04;;;;;;;4.67;4.37;;;20.10;99.90;;;;;;4953014;28;20929;-70
2022/05/02 14:53:39;;;;;;;5.13;4.67;;;20.20;99.90;;;;;;4953531;28;20533;-71
2022/05/02 14:56:12;;;;;;;4.77;4.40;;;20.50;99.90;;;;;;4953274;28;20843;-70
2022/05/02 14:58:40;;;;;;;5.10;4.70;;;20.60;99.90;;;;;;4953348;28;20460;-71
2022/05/02 15:01:14;;;;;;;5.10;4.70;;;20.70;99.90;;;;;;4952822;28;20436;-71
2022/05/02 15:03:41;;;;;;;5.10;4.60;;;21.10;99.90;;;;;;4954038;29;20408;-70
2022/05/02 15:06:07;;;;;;;4.57;4.27;;;21.10;99.90;;;;;;4953406;28;20404;-71
2022/05/02 15:09:11;;;;;;;4.53;4.23;;;21.20;99.90;;;;;;4953334;28;20774;-71
2022/05/02 15:11:39;;;;;;;6.60;4.30;;;21.20;99.90;;;;;;4953038;28;20436;-72
2022/05/02 15:14:18;;;;;;;5.03;4.57;;;21.10;99.90;;;;;;4958679;28;20409;-72